Time;durP1;ratioP1;P1;durP2;ratioP2;P2;SDS_P1;SDS_P2;PMS_P1;PMS_P2;Temp;Humidity;BMP_temperature;BMP_pressure;BME280_temperature;BME280_humidity;BME280_pressure;Samples;Min_cycle;Max_cycle;Signal;HPM_P1;HPM_P2
2021/11/09 00:00:13;;;;;;;5.40;5.00;;;17.90;74.00;;;21.90;39.57;95315.91;6073003;19;20272;-67
2021/11/09 00:02:14;;;;;;;5.15;4.75;;;17.90;73.90;;;21.89;39.73;95317.81;6088505;19;20325;-69
2021/11/09 00:04:14;;;;;;;5.68;5.18;;;17.90;74.40;;;21.90;39.61;95318.59;6074761;19;20003;-69
2021/11/09 00:06:22;;;;;;;5.90;5.30;;;17.90;74.00;;;21.90;39.51;95313.19;6076439;19;20026;-69
2021/11/09 00:08:30;;;;;;;5.63;5.15;;;17.90;74.00;;;21.88;39.38;95318.13;6080588;19;20011;-68
2021/11/09 00:10:31;;;;;;;5.97;5.57;;;17.90;73.90;;;21.88;39.38;95321.63;6077582;19;20653;-69
2021/11/09 00:12:41;;;;;;;4.80;4.40;;;17.90;73.90;;;21.88;39.58;95326.25;6070319;19;20018;-69
2021/11/09 00:14:42;;;;;;;5.38;4.97;;;17.90;73.90;;;21.88;39.72;95320.84;6071639;19;20442;-68
2021/11/09 00:16:42;;;;;;;5.00;4.60;;;17.90;73.90;;;21.85;39.61;95321.47;6077758;19;20018;-71
2021/11/09 00:18:45;;;;;;;5.07;4.68;;;17.90;74.00;;;21.85;39.65;95318.75;6083843;19;20069;-68
2021/11/09 00:27:30;;;;;;;5.00;4.60;;;17.90;73.90;;;21.75;40.02;95325.28;6070311;19;20004;-67
2021/11/09 00:29:31;;;;;;;5.03;4.53;;;17.90;73.90;;;21.77;39.93;95323.06;6047949;19;20026;-69
2021/11/09 00:31:33;;;;;;;4.85;4.45;;;17.80;73.90;;;21.77;40.00;95317.63;6062650;19;21167;-68
2021/11/09 00:33:34;;;;;;;4.72;4.40;;;17.80;74.60;;;21.78;39.83;95321.13;6066364;19;20026;-67
2021/11/09 00:35:36;;;;;;;4.22;3.92;;;17.80;73.90;;;21.79;39.76;95317.31;6065181;19;20041;-68
2021/11/09 00:41:38;;;;;;;5.10;4.65;;;17.80;73.90;;;21.73;40.09;95316.66;6072674;19;20001;-68
2021/11/09 00:43:39;;;;;;;5.10;4.70;;;17.80;73.80;;;21.72;39.90;95327.84;6062441;19;20017;-67
2021/11/09 00:45:40;;;;;;;4.63;4.22;;;17.80;73.90;;;21.73;39.55;95332.16;6064375;19;20010;-67
2021/11/09 00:47:43;;;;;;;4.50;4.20;;;17.80;73.90;;;21.74;39.51;95325.59;6063918;19;20760;-68
2021/11/09 00:49:44;;;;;;;4.57;4.22;;;17.80;73.90;;;21.74;39.76;95328.31;6072746;19;20025;-67
2021/11/09 00:51:46;;;;;;;4.22;3.92;;;17.80;73.90;;;21.74;39.74;95328.31;6061692;19;20010;-68
2021/11/09 00:54:03;;;;;;;4.47;4.07;;;17.80;73.80;;;21.73;39.57;95329.44;6065509;19;20011;-69
2021/11/09 00:56:04;;;;;;;4.93;3.80;;;17.80;73.90;;;21.72;39.77;95330.53;6083176;19;20006;-67
2021/11/09 00:58:05;;;;;;;4.50;4.15;;;17.80;73.80;;;21.72;39.87;95330.53;6080282;19;20073;-67
2021/11/09 01:00:09;;;;;;;4.40;4.10;;;17.80;73.90;;;21.71;39.58;95337.09;6069895;19;20569;-67
2021/11/09 01:02:10;;;;;;;4.10;3.80;;;17.80;74.00;;;21.71;39.60;95335.19;6070075;19;20782;-68
2021/11/09 01:04:12;;;;;;;4.03;3.70;;;17.80;74.10;;;21.71;40.02;95337.88;6077229;19;20024;-67
2021/11/09 01:06:13;;;;;;;3.55;3.35;;;17.80;74.10;;;21.72;39.63;95333.25;6067314;19;20147;-68
2021/11/09 01:08:17;;;;;;;3.85;3.55;;;17.80;74.20;;;21.72;40.03;95334.06;6064367;19;20681;-68
2021/11/09 01:10:18;;;;;;;4.65;4.25;;;17.80;74.20;;;21.73;39.52;95332.16;6081134;19;19998;-67
2021/11/09 01:12:19;;;;;;;4.47;4.07;;;17.80;74.60;;;21.73;40.20;95332.94;6083382;19;20048;-68
2021/11/09 01:14:22;;;;;;;3.50;3.20;;;17.80;75.10;;;21.73;40.09;95332.94;6081485;19;20007;-68
2021/11/09 01:16:23;;;;;;;3.83;3.53;;;17.80;74.30;;;21.74;39.88;95329.13;6091026;19;20021;-69
2021/11/09 01:18:29;;;;;;;4.40;4.10;;;17.80;74.30;;;21.75;39.94;95324.50;6086694;19;20471;-68
2021/11/09 01:20:33;;;;;;;4.35;4.05;;;17.80;74.40;;;21.74;39.95;95331.84;6092150;19;20019;-69
2021/11/09 01:22:34;;;;;;;3.80;3.50;;;17.80;74.40;;;21.75;40.12;95329.91;6096409;19;20505;-70
2021/11/09 01:24:35;;;;;;;4.18;3.72;;;17.80;74.40;;;21.75;39.66;95336.13;6098616;19;20018;-68
2021/11/09 01:26:35;;;;;;;3.97;3.67;;;17.80;74.40;;;21.77;39.95;95335.81;6083416;19;21162;-67
2021/11/09 01:28:38;;;;;;;4.88;3.50;;;17.80;74.40;;;21.76;39.94;95329.59;6086376;19;20010;-68
2021/11/09 01:30:40;;;;;;;3.65;3.20;;;17.80;74.30;;;21.79;39.46;95333.59;6075279;19;20032;-67
2021/11/09 01:32:42;;;;;;;3.70;3.40;;;17.80;74.40;;;21.79;39.80;95331.69;6068789;19;20430;-67
2021/11/09 01:34:42;;;;;;;3.42;3.13;;;17.80;74.30;;;21.79;40.03;95333.59;6075902;19;20006;-67
2021/11/09 01:36:43;;;;;;;3.50;3.28;;;17.80;74.30;;;21.79;39.56;95325.44;6073932;19;20018;-67
2021/11/09 01:38:45;;;;;;;4.25;3.95;;;17.80;74.20;;;21.79;39.84;95320.03;6075860;19;20015;-67
2021/11/09 01:40:46;;;;;;;3.95;3.65;;;17.80;74.30;;;21.79;39.57;95317.31;6083980;19;20011;-67
2021/11/09 01:42:47;;;;;;;3.55;3.28;;;17.80;74.20;;;21.78;39.41;95313.81;6085413;19;20026;-67
2021/11/09 01:44:48;;;;;;;3.38;3.08;;;17.80;74.10;;;21.78;39.82;95304.84;6100218;19;20015;-67
2021/11/09 01:46:49;;;;;;;3.35;3.05;;;17.80;74.10;;;21.77;39.77;95311.41;6082084;19;20007;-66
2021/11/09 01:48:50;;;;;;;3.67;3.35;;;17.80;74.20;;;21.77;39.84;95311.41;6093371;19;20665;-67
2021/11/09 01:50:56;;;;;;;3.60;3.30;;;17.80;74.20;;;21.75;39.92;95310.91;6099162;19;20038;-67
2021/11/09 01:52:57;;;;;;;3.60;3.30;;;17.80;74.10;;;21.74;39.94;95309.31;6087826;19;20023;-68
2021/11/09 01:54:58;;;;;;;3.70;3.40;;;17.80;74.10;;;21.74;40.13;95318.25;6080019;19;20525;-68
2021/11/09 01:56:59;;;;;;;3.42;3.13;;;17.80;74.10;;;21.72;39.75;95319.69;6104072;19;20017;-67
2021/11/09 01:59:01;;;;;;;3.38;3.17;;;17.80;74.00;;;21.72;39.95;95317.78;6084381;19;20638;-67
2021/11/09 02:01:15;;;;;;;3.00;2.80;;;17.80;73.90;;;21.71;39.49;95315.38;6070366;19;20009;-68
2021/11/09 02:03:17;;;;;;;3.00;2.80;;;17.80;73.90;;;21.71;39.62;95320.81;6071054;19;20002;-67
2021/11/09 02:05:20;;;;;;;3.58;2.90;;;17.80;73.80;;;21.71;39.46;95318.09;6089705;19;20014;-67
2021/11/09 02:07:21;;;;;;;3.50;3.20;;;17.80;73.80;;;21.70;39.86;95308.34;6063855;19;20102;-67
2021/11/09 02:09:22;;;;;;;2.65;2.50;;;17.80;73.80;;;21.69;39.63;95306.75;6065138;19;20010;-68
2021/11/09 02:11:23;;;;;;;3.05;2.75;;;17.80;73.70;;;21.69;39.43;95314.91;6076952;19;20090;-68
2021/11/09 02:13:25;;;;;;;3.10;2.83;;;17.80;73.70;;;21.69;40.03;95315.69;6057489;19;20855;-68
2021/11/09 02:15:32;;;;;;;2.80;2.60;;;17.80;73.70;;;21.69;39.77;95317.59;6067523;19;20379;-68
2021/11/09 02:17:37;;;;;;;2.95;2.75;;;17.70;73.50;;;21.68;39.69;95308.66;6075916;19;20044;-67
2021/11/09 02:19:38;;;;;;;2.67;2.47;;;17.70;73.60;;;21.68;39.67;95305.16;6075119;19;20333;-67
2021/11/09 02:21:39;;;;;;;2.85;2.65;;;17.80;73.70;;;21.67;39.68;95304.34;6080201;19;20007;-67
2021/11/09 02:23:43;;;;;;;2.95;2.75;;;17.70;73.60;;;21.67;39.89;95309.78;6084534;19;20026;-68
2021/11/09 02:25:44;;;;;;;2.88;2.67;;;17.80;73.70;;;21.69;39.97;95306.75;6079105;19;20033;-67
2021/11/09 02:27:45;;;;;;;3.03;2.83;;;17.70;73.70;;;21.68;39.47;95311.38;6077588;19;20078;-69
2021/11/09 02:29:46;;;;;;;3.22;3.00;;;17.70;73.70;;;21.68;39.58;95303.25;6086394;19;20031;-66
2021/11/09 02:31:47;;;;;;;2.38;2.17;;;17.80;73.90;;;21.69;39.98;95301.34;6091558;19;20116;-67
2021/11/09 02:33:49;;;;;;;2.72;2.53;;;17.70;73.80;;;21.69;39.53;95298.63;6093596;19;20015;-67
2021/11/09 02:35:50;;;;;;;3.28;2.83;;;17.70;73.80;;;21.69;39.97;95304.03;6075438;19;20364;-68
2021/11/09 02:37:53;;;;;;;9.60;3.10;;;17.70;73.80;;;21.69;39.81;95302.13;6070089;19;20483;-67
2021/11/09 02:39:54;;;;;;;2.42;2.22;;;17.80;74.00;;;21.70;39.73;95311.06;6079179;19;20022;-68
2021/11/09 02:41:55;;;;;;;2.67;2.47;;;17.70;73.90;;;21.70;39.68;95308.34;6079997;19;20035;-67
2021/11/09 02:43:58;;;;;;;2.33;2.13;;;17.70;74.10;;;21.72;39.98;95314.25;6078030;19;20006;-67
2021/11/09 02:48:07;;;;;;;2.80;2.55;;;17.80;74.20;;;21.71;39.65;95316.19;6084394;19;19966;-69
2021/11/09 02:50:11;;;;;;;2.30;2.10;;;17.80;74.20;;;21.71;39.70;95310.75;6088881;19;20017;-67
2021/11/09 02:52:12;;;;;;;4.50;2.40;;;17.80;73.70;;;21.73;39.68;95313.16;6079229;19;20045;-69
2021/11/09 02:56:27;;;;;;;3.70;2.72;;;17.80;74.20;;;21.73;39.62;95321.28;6083077;19;20485;-68
2021/11/09 02:58:54;;;;;;;2.70;2.50;;;17.80;74.20;;;21.72;39.84;95323.22;6071614;19;20018;-68
2021/11/09 03:03:07;;;;;;;2.40;2.22;;;17.80;74.10;;;21.72;39.81;95322.41;6098726;19;21746;-67
2021/11/09 03:05:30;;;;;;;2.20;2.00;;;17.80;74.10;;;21.72;39.76;95327.84;6093359;19;20033;-69
2021/11/09 03:07:44;;;;;;;;;;;17.80;74.00;;;21.70;39.73;95330.88;6093963;19;20376;-69
2021/11/09 03:10:03;;;;;;;10.52;2.35;;;17.80;74.10;;;21.69;39.45;95329.25;6089991;19;19946;-67
2021/11/09 03:12:08;;;;;;;2.33;2.13;;;17.80;74.00;;;21.70;39.71;95330.06;6091668;19;20136;-69
2021/11/09 03:14:09;;;;;;;2.40;2.22;;;17.80;74.00;;;21.69;40.03;95333.88;6094077;19;20111;-67
2021/11/09 03:16:12;;;;;;;2.33;2.13;;;17.80;73.90;;;21.68;39.63;95338.53;6094121;19;20014;-67
2021/11/09 03:18:16;;;;;;;2.55;2.35;;;17.70;73.90;;;21.68;39.81;95333.09;6087830;19;20010;-67
2021/11/09 03:20:46;;;;;;;2.40;2.20;;;17.80;74.00;;;21.68;39.56;95329.59;6092003;19;20582;-67
2021/11/09 03:46:00;;;;;;;2.45;2.25;;;17.70;74.30;;;21.59;39.84;95324.91;6067961;19;20109;-67
2021/11/09 03:48:08;;;;;;;2.65;2.00;;;17.70;74.30;;;21.59;40.20;95330.31;6087759;19;20538;-67
2021/11/09 03:50:10;;;;;;;2.78;2.40;;;17.70;74.40;;;21.63;39.65;95332.44;6066120;19;20019;-67
2021/11/09 03:52:21;;;;;;;;;;;17.70;74.40;;;21.62;40.07;95337.06;6067418;19;20018;-67
2021/11/09 03:54:27;;;;;;;2.70;2.20;;;17.70;74.40;;;21.62;39.96;95337.06;6076167;19;19965;-67
2021/11/09 03:56:42;;;;;;;2.58;2.28;;;17.70;74.40;;;21.64;39.74;95336.75;6088563;19;20018;-67
2021/11/09 03:58:45;;;;;;;2.25;1.80;;;17.70;74.50;;;21.64;40.19;95336.75;6092818;19;20455;-66
2021/11/09 04:01:12;;;;;;;2.45;2.28;;;17.70;74.50;;;21.64;39.78;95344.88;6095189;19;20042;-66
2021/11/09 04:05:16;;;;;;;2.30;1.55;;;17.70;74.60;;;21.66;40.20;95339.94;6109593;19;20411;-67
2021/11/09 04:07:23;;;;;;;2.30;2.10;;;17.80;74.60;;;21.66;39.78;95345.38;6098509;19;20130;-67
2021/11/09 04:09:37;;;;;;;1.85;1.75;;;17.70;74.50;;;21.67;40.06;95346.97;6091016;19;20777;-67
2021/11/09 04:14:25;;;;;;;2.22;1.80;;;17.70;74.40;;;21.65;39.80;95346.50;6101465;19;19929;-67
2021/11/09 04:18:35;;;;;;;1.98;1.88;;;17.70;74.30;;;21.65;40.14;95333.72;6108765;19;20347;-67
2021/11/09 04:20:45;;;;;;;2.17;1.98;;;17.70;74.30;;;21.65;40.00;95328.28;6104580;19;20514;-67
2021/11/09 04:29:30;;;;;;;2.95;2.35;;;17.70;74.30;;;21.63;39.93;95335.16;6107253;19;20014;-67
2021/11/09 05:01:32;;;;;;;1.90;1.80;;;17.70;74.20;;;21.57;39.74;95359.69;6105225;19;20014;-65
2021/11/09 05:10:24;;;;;;;2.17;2.00;;;17.70;74.40;;;21.58;39.86;95350.44;6109854;19;21247;-65
2021/11/09 05:12:25;;;;;;;2.42;1.50;;;17.70;74.40;;;21.59;39.77;95343.88;6109078;19;20027;-66
2021/11/09 05:14:26;;;;;;;2.53;1.63;;;17.70;74.40;;;21.61;40.12;95348.19;6107749;19;20018;-66
2021/11/09 05:16:27;;;;;;;1.60;1.50;;;17.70;74.40;;;21.63;40.24;95346.00;6113139;19;20574;-66
2021/11/09 05:18:28;;;;;;;1.92;1.83;;;17.70;74.50;;;21.63;40.05;95349.50;6114029;19;20014;-66
2021/11/09 05:20:30;;;;;;;1.65;1.55;;;17.70;74.40;;;21.65;39.86;95351.91;6111543;19;20031;-66
2021/11/09 05:22:31;;;;;;;2.05;1.80;;;17.70;74.40;;;21.65;40.25;95357.34;6111103;19;20018;-66
2021/11/09 05:24:31;;;;;;;1.55;1.45;;;17.70;74.40;;;21.66;39.98;95356.22;6111791;19;20344;-66
2021/11/09 05:26:33;;;;;;;1.70;1.60;;;17.70;74.30;;;21.67;39.90;95363.25;6114920;19;20464;-66
2021/11/09 05:28:34;;;;;;;1.95;1.85;;;17.70;74.40;;;21.67;39.89;95355.13;6109514;19;20490;-65
2021/11/09 05:30:38;;;;;;;1.70;1.60;;;17.70;74.30;;;21.67;39.89;95346.97;6110384;19;20011;-66
2021/11/09 05:32:39;;;;;;;1.90;1.70;;;17.70;74.30;;;21.67;40.11;95346.97;6111902;19;20150;-66
2021/11/09 05:34:40;;;;;;;1.65;1.55;;;17.70;74.30;;;21.67;39.93;95345.06;6112033;19;20129;-65
2021/11/09 05:36:42;;;;;;;2.03;1.80;;;17.70;74.40;;;21.67;40.14;95349.69;6112555;19;20014;-66
2021/11/09 05:40:52;;;;;;;1.50;1.40;;;17.70;74.20;;;21.65;40.21;95360.84;6115127;19;20022;-66
2021/11/09 05:42:53;;;;;;;1.60;1.50;;;17.70;74.20;;;21.65;39.82;95362.78;6110565;19;20014;-66
2021/11/09 05:44:54;;;;;;;1.58;1.48;;;17.70;74.20;;;21.65;39.91;95363.56;6111094;19;20015;-66
2021/11/09 05:46:56;;;;;;;1.95;1.70;;;17.70;74.20;;;21.65;40.06;95360.06;6110785;19;20050;-66
2021/11/09 05:48:57;;;;;;;1.83;1.73;;;17.70;74.20;;;21.64;39.69;95361.97;6112714;19;20025;-66
2021/11/09 05:50:58;;;;;;;1.70;1.60;;;17.70;74.20;;;21.63;40.01;95357.66;6112711;19;20014;-66
2021/11/09 05:52:59;;;;;;;1.60;1.50;;;17.70;74.20;;;21.63;39.98;95352.22;6112166;19;20380;-67
2021/11/09 05:55:00;;;;;;;1.80;1.48;;;17.70;74.20;;;21.62;40.03;95357.97;6111583;19;20014;-67
2021/11/09 05:57:01;;;;;;;2.00;1.80;;;17.70;74.20;;;21.62;39.78;95357.97;6110743;19;20011;-67
2021/11/09 05:59:03;;;;;;;1.50;1.40;;;17.70;74.20;;;21.60;39.78;95358.25;6110611;19;20491;-67
2021/11/09 06:01:04;;;;;;;1.50;1.40;;;17.70;74.20;;;21.59;39.83;95360.16;6076075;19;20552;-67
2021/11/09 06:03:05;;;;;;;1.80;1.70;;;17.70;74.20;;;21.60;39.82;95363.69;6060107;19;20055;-67
2021/11/09 06:05:07;;;;;;;1.52;1.42;;;17.70;74.20;;;21.60;39.91;95360.97;6070561;19;20002;-68
2021/11/09 06:07:08;;;;;;;1.95;1.75;;;17.70;74.30;;;21.60;39.61;95360.97;6080316;19;20118;-69
2021/11/09 06:09:08;;;;;;;1.55;1.45;;;17.70;74.20;;;21.61;39.68;95365.28;6074229;19;20088;-68
2021/11/09 06:11:09;;;;;;;2.28;1.45;;;17.70;74.20;;;21.61;39.91;95361.78;6080312;19;20106;-68
2021/11/09 06:13:10;;;;;;;3.30;1.30;;;17.70;74.20;;;21.60;39.77;95358.25;6072882;19;20363;-67
2021/11/09 06:15:11;;;;;;;1.98;1.50;;;17.70;74.20;;;21.61;39.71;95359.06;6085024;19;20035;-68
2021/11/09 06:17:12;;;;;;;1.70;1.40;;;17.70;74.20;;;21.61;39.97;95370.72;6076210;19;20864;-69
2021/11/09 06:19:13;;;;;;;4.72;1.70;;;17.60;74.20;;;21.62;40.04;95375.06;6074741;19;20021;-69
2021/11/09 06:21:14;;;;;;;1.50;1.30;;;17.70;74.40;;;21.62;39.83;95372.34;6071983;19;20006;-69
2021/11/09 06:23:15;;;;;;;1.90;1.80;;;17.70;74.10;;;21.62;39.83;95374.25;6076652;19;20023;-68
2021/11/09 06:25:16;;;;;;;3.20;1.60;;;17.70;73.70;;;21.65;39.89;95379.06;6063032;19;20085;-69
2021/11/09 06:27:18;;;;;;;2.97;1.67;;;17.70;73.40;;;21.64;39.74;95375.53;6075641;19;19995;-69
2021/11/09 06:29:20;;;;;;;3.00;1.73;;;17.70;73.30;;;21.65;39.55;95388.00;6079477;19;20018;-69
2021/11/09 06:31:21;;;;;;;1.98;1.77;;;17.70;73.00;;;21.66;39.75;95380.66;6082661;19;21181;-69
2021/11/09 06:33:23;;;;;;;3.15;1.40;;;17.70;72.80;;;21.67;39.63;95379.53;6076597;19;20014;-68
2021/11/09 06:35:24;;;;;;;1.95;1.70;;;17.70;72.60;;;21.68;39.53;95375.72;6080262;19;20071;-68
2021/11/09 06:37:25;;;;;;;4.30;1.73;;;17.70;72.20;;;21.69;39.42;95377.31;6084343;19;20010;-69
2021/11/09 06:39:27;;;;;;;3.20;2.15;;;17.70;72.20;;;21.70;39.08;95373.47;6084192;19;20025;-67
2021/11/09 06:41:28;;;;;;;3.88;2.10;;;17.70;71.80;;;21.69;39.30;95372.69;6104144;19;20138;-68
2021/11/09 06:43:29;;;;;;;4.43;2.08;;;17.80;72.00;;;21.70;38.93;95362.63;6096245;19;20018;-69
2021/11/09 06:45:30;;;;;;;2.40;1.92;;;17.80;72.00;;;21.71;38.96;95375.06;6104777;19;20042;-69
2021/11/09 06:47:31;;;;;;;7.28;2.17;;;17.80;72.10;;;21.71;38.81;95373.16;6107021;19;20022;-69
2021/11/09 06:49:32;;;;;;;4.93;2.53;;;17.80;70.70;;;21.71;38.78;95375.88;6107635;19;20118;-69
2021/11/09 06:51:33;;;;;;;3.08;1.98;;;17.80;70.80;;;21.71;39.03;95367.75;6105949;19;20368;-69
2021/11/09 06:53:33;;;;;;;2.35;2.03;;;17.80;70.50;;;21.72;38.98;95372.06;6106901;19;20049;-69
2021/11/09 06:55:37;;;;;;;2.90;2.50;;;17.80;70.70;;;21.71;38.81;95373.16;6106614;19;20019;-69
2021/11/09 06:57:38;;;;;;;2.42;2.22;;;17.80;70.90;;;21.71;39.11;95372.38;6102417;19;20327;-69
2021/11/09 06:59:39;;;;;;;2.55;2.17;;;17.70;70.70;;;21.71;38.57;95377.78;6102314;19;20034;-69
2021/11/09 07:01:40;;;;;;;2.17;1.90;;;17.70;70.90;;;21.70;38.96;95370.75;6099886;19;20082;-69
2021/11/09 07:03:41;;;;;;;4.90;2.25;;;17.80;70.90;;;21.69;38.74;95375.41;6102168;19;20067;-68
2021/11/09 07:05:42;;;;;;;2.40;2.20;;;17.70;70.70;;;21.70;38.95;95376.19;6101823;19;20921;-69
2021/11/09 07:07:43;;;;;;;2.42;2.22;;;17.70;70.70;;;21.68;38.53;95381.13;6103351;19;20101;-69
2021/11/09 07:09:44;;;;;;;6.38;2.10;;;17.70;70.90;;;21.68;38.95;95383.84;6099254;19;20026;-68
2021/11/09 07:11:45;;;;;;;3.22;2.17;;;17.80;71.00;;;21.66;38.75;95386.06;6101959;19;20007;-68
2021/11/09 07:13:46;;;;;;;2.20;1.90;;;17.70;71.00;;;21.66;39.18;95383.38;6106121;19;20475;-69
2021/11/09 07:15:47;;;;;;;2.30;2.10;;;17.70;71.00;;;21.66;39.11;95388.78;6106457;19;20022;-68
2021/11/09 07:17:49;;;;;;;3.55;1.77;;;17.70;71.20;;;21.65;38.96;95388.00;6108163;19;20368;-69
2021/11/09 07:19:51;;;;;;;5.00;1.83;;;17.70;71.30;;;21.65;39.10;95387.19;6104126;19;20018;-68
2021/11/09 07:21:55;;;;;;;2.45;2.25;;;17.70;71.30;;;21.65;39.09;95390.69;6105401;19;20029;-68
2021/11/09 07:23:56;;;;;;;5.35;1.88;;;17.70;71.40;;;21.64;38.72;95388.31;6107852;19;20019;-68
2021/11/09 07:25:57;;;;;;;2.30;2.10;;;17.70;71.40;;;21.64;39.35;95385.59;6107586;19;20014;-68
2021/11/09 07:28:00;;;;;;;1.95;1.75;;;17.70;71.40;;;21.63;39.13;95384.78;6106489;19;20521;-68
2021/11/09 07:30:03;;;;;;;1.83;1.50;;;17.70;71.40;;;21.63;38.75;95387.50;6107265;19;20098;-69
2021/11/09 07:32:05;;;;;;;3.55;1.90;;;17.70;71.40;;;21.61;39.11;95392.41;6108164;19;20011;-69
2021/11/09 07:34:06;;;;;;;1.83;1.70;;;17.80;71.60;;;21.62;39.27;95387.81;6092174;19;20039;-68
2021/11/09 07:36:10;;;;;;;1.73;1.63;;;17.70;71.50;;;21.63;39.04;95389.41;6090341;19;20040;-68
2021/11/09 07:38:12;;;;;;;1.80;1.70;;;17.80;71.60;;;21.64;39.31;95399.16;6049215;19;20010;-68
2021/11/09 07:40:16;;;;;;;3.63;1.90;;;17.70;71.50;;;21.64;39.40;95397.25;6060699;19;20018;-69
2021/11/09 07:42:18;;;;;;;3.22;1.65;;;17.80;72.10;;;21.66;39.07;95399.63;6062508;19;20023;-65
2021/11/09 07:44:19;;;;;;;2.03;1.83;;;17.80;72.80;;;21.69;39.49;95399.00;6076251;19;20011;-66
2021/11/09 07:46:20;;;;;;;1.45;1.35;;;17.80;73.10;;;21.69;39.66;95399.81;6067074;19;20038;-66
2021/11/09 07:48:21;;;;;;;3.45;1.90;;;17.80;73.40;;;21.72;39.75;95392.97;6069922;19;20479;-65
2021/11/09 07:50:23;;;;;;;4.40;1.80;;;17.80;74.10;;;21.73;39.83;95394.56;6074847;19;20015;-66
2021/11/09 07:52:25;;;;;;;1.83;1.55;;;17.80;74.30;;;21.75;39.88;95395.84;6061629;19;20027;-67
2021/11/09 07:54:32;;;;;;;3.42;1.83;;;17.80;74.70;;;21.78;39.88;95397.94;6070649;19;20118;-67
2021/11/09 07:56:36;;;;;;;2.03;1.83;;;17.80;74.90;;;21.79;40.00;95391.38;6077324;19;20973;-65
2021/11/09 08:00:47;;;;;;;2.50;1.52;;;17.90;75.10;;;21.84;39.99;95390.44;6047184;19;20030;-65
2021/11/09 08:03:33;;;;;;;1.70;1.42;;;17.90;74.80;;;21.87;40.02;95400.66;6072445;19;20031;-66
2021/11/09 08:05:16;;;;;;;5.85;1.85;;;17.90;74.60;;;21.88;39.85;95396.84;6075339;19;20006;-66
2021/11/09 08:07:21;;;;;;;2.13;1.80;;;17.90;74.40;;;21.88;39.69;95405.78;6082056;19;20671;-66
2021/11/09 08:09:29;;;;;;;2.90;1.48;;;17.90;74.20;;;21.89;39.35;95399.25;6084322;19;20462;-67
2021/11/09 08:11:30;;;;;;;1.90;1.80;;;17.90;74.10;;;21.90;39.46;95398.13;6072902;19;20039;-65
2021/11/09 08:13:31;;;;;;;2.92;1.48;;;17.90;74.10;;;21.92;39.87;95397.00;6053413;19;20010;-65
2021/11/09 08:15:32;;;;;;;3.25;1.70;;;18.00;74.00;;;21.93;39.50;95396.69;6071406;19;20018;-67
2021/11/09 08:17:33;;;;;;;2.42;1.35;;;17.90;73.80;;;21.93;39.40;95399.41;6075331;19;20066;-66
2021/11/09 08:19:34;;;;;;;1.77;1.55;;;17.90;73.70;;;21.94;39.80;95392.06;6081947;19;20010;-66
2021/11/09 08:21:36;;;;;;;1.40;1.30;;;17.90;73.80;;;21.94;39.18;95389.34;6070393;19;20052;-66
2021/11/09 08:23:37;;;;;;;1.70;1.60;;;17.90;73.60;;;21.94;39.31;95395.56;6069814;19;20017;-65
2021/11/09 08:25:38;;;;;;;1.38;1.27;;;18.00;73.60;;;21.94;39.69;95395.56;6058929;19;20483;-66
2021/11/09 08:27:39;;;;;;;1.10;1.02;;;18.00;73.50;;;21.95;39.23;95390.94;6068419;19;20043;-66
2021/11/09 08:29:48;;;;;;;1.73;1.60;;;17.90;73.50;;;21.94;39.23;95395.56;6064848;19;20018;-67
2021/11/09 08:31:49;;;;;;;1.35;1.10;;;17.90;73.30;;;21.94;39.57;95395.56;6065667;19;20002;-67
2021/11/09 08:33:51;;;;;;;1.75;1.33;;;18.00;73.40;;;21.95;39.28;95397.19;6061862;19;20019;-68
2021/11/09 08:35:53;;;;;;;2.50;1.40;;;18.00;73.40;;;21.95;39.34;95393.66;6074942;19;20014;-66
2021/11/09 08:37:54;;;;;;;1.77;1.50;;;18.00;73.20;;;21.94;39.55;95387.44;6075230;19;20505;-67
2021/11/09 08:39:55;;;;;;;2.45;1.30;;;18.00;73.10;;;21.94;39.31;95392.88;6065098;19;20019;-66
2021/11/09 08:44:17;;;;;;;2.58;1.52;;;18.00;73.00;;;21.93;39.20;95393.19;6066243;19;20011;-67
2021/11/09 08:46:22;;;;;;;1.40;1.23;;;18.00;72.80;;;21.92;39.26;95397.81;6080018;19;20021;-68
2021/11/09 08:48:24;;;;;;;3.85;1.05;;;18.00;72.60;;;21.90;39.34;95400.84;6077788;19;20022;-67
2021/11/09 08:50:26;;;;;;;2.55;1.10;;;18.00;72.60;;;21.90;39.62;95394.59;6076993;19;20014;-68
2021/11/09 08:52:30;;;;;;;1.98;1.23;;;18.00;72.50;;;21.91;39.32;95390.78;6079717;19;20010;-68
2021/11/09 09:05:01;;;;;;;0.82;0.82;;;18.00;72.40;;;21.88;39.05;95397.63;6053993;19;20018;-70
2021/11/09 09:07:03;;;;;;;1.60;1.35;;;18.00;72.40;;;21.89;39.12;95406.59;6055063;19;20014;-69
2021/11/09 09:09:04;;;;;;;0.90;0.90;;;18.00;72.30;;;21.89;39.21;95403.88;6068326;19;20604;-70
2021/11/09 09:11:05;;;;;;;1.20;1.10;;;18.00;73.00;;;21.88;39.21;95399.56;6038419;19;20006;-69
2021/11/09 09:13:06;;;;;;;1.27;1.00;;;18.00;72.30;;;21.88;39.37;95408.50;6049061;19;20811;-69
2021/11/09 09:15:10;;;;;;;1.83;1.25;;;17.90;72.20;;;21.89;39.03;95403.88;6048008;19;20043;-69
2021/11/09 09:17:11;;;;;;;1.38;1.10;;;18.00;72.20;;;21.89;38.94;95401.94;6064388;19;20075;-71
2021/11/09 09:19:17;;;;;;;1.10;1.00;;;18.00;72.20;;;21.90;39.21;95400.03;6053952;19;20028;-69
2021/11/09 09:21:24;;;;;;;2.20;1.00;;;18.00;72.20;;;21.91;39.24;95409.78;6062546;19;20090;-69
2021/11/09 09:23:33;;;;;;;1.20;1.10;;;18.00;72.10;;;21.92;38.91;95405.94;6049514;19;20093;-72
2021/11/09 09:53:02;;;;;;;2.22;0.90;;;18.10;71.90;;;22.04;38.99;95408.91;6079730;19;20014;-66
2021/11/09 09:57:01;;;;;;;0.88;0.82;;;18.10;71.80;;;22.06;39.17;95405.88;6072456;19;21610;-64
2021/11/09 09:59:02;;;;;;;1.08;0.80;;;18.20;71.90;;;22.08;38.83;95414.50;6070492;19;20039;-68
2021/11/09 10:01:03;;;;;;;2.75;0.63;;;18.20;71.90;;;22.08;38.76;95412.59;6048253;19;20015;-71
2021/11/09 10:03:04;;;;;;;2.97;0.70;;;18.10;71.80;;;22.07;39.24;95400.13;6067189;19;20022;-70
2021/11/09 10:05:11;;;;;;;1.30;1.02;;;18.10;71.90;;;22.09;39.04;95402.53;6068899;19;20119;-70
2021/11/09 10:07:14;;;;;;;1.88;0.77;;;18.20;71.90;;;22.09;38.92;95400.63;6061261;19;20027;-69
2021/11/09 10:09:32;;;;;;;;;;;18.20;71.90;;;22.09;39.32;95397.91;6084024;19;20006;-70
2021/11/09 10:11:37;;;;;;;3.97;0.95;;;18.10;71.70;;;22.09;39.27;95397.09;6065110;19;20313;-70
2021/11/09 10:13:39;;;;;;;5.20;0.93;;;18.20;71.90;;;22.07;39.08;95394.72;6079168;19;20011;-70
2021/11/09 10:15:53;;;;;;;0.75;0.70;;;18.20;72.00;;;22.08;39.17;95400.94;6083524;19;20018;-71
2021/11/09 10:18:00;;;;;;;1.08;0.70;;;18.20;72.00;;;22.09;38.85;95403.34;6049833;19;20047;-71
2021/11/09 10:20:16;;;;;;;0.82;0.68;;;18.10;71.90;;;22.08;39.07;95399.03;6065731;19;20021;-70
2021/11/09 10:22:28;;;;;;;1.13;0.80;;;18.20;72.10;;;22.08;39.23;95395.50;6047910;19;20018;-70
2021/11/09 10:24:30;;;;;;;0.98;0.68;;;18.20;72.10;;;22.08;39.18;95398.22;6066297;19;20083;-72
2021/11/09 10:26:35;;;;;;;2.05;0.70;;;18.20;72.20;;;22.09;38.87;95402.53;6075905;19;20027;-71
2021/11/09 10:28:36;;;;;;;1.10;0.52;;;18.20;72.30;;;22.08;38.93;95401.72;6076073;19;20018;-72
2021/11/09 10:30:49;;;;;;;1.17;0.70;;;18.10;72.30;;;22.08;39.39;95399.03;6054488;19;20014;-72
2021/11/09 10:32:53;;;;;;;2.60;0.68;;;18.20;72.30;;;22.07;39.38;95394.72;6078967;19;20600;-72
2021/11/09 10:34:58;;;;;;;0.85;0.65;;;18.10;72.20;;;22.07;39.33;95392.00;6071234;19;20010;-72
2021/11/09 10:37:22;;;;;;;1.13;0.75;;;18.20;72.50;;;22.06;39.09;95390.41;6079895;19;21098;-71
2021/11/09 10:39:25;;;;;;;0.90;0.60;;;18.20;72.50;;;22.06;39.24;95397.75;6078872;19;20557;-72
2021/11/09 10:41:26;;;;;;;2.28;0.75;;;18.20;72.60;;;22.05;39.34;95393.44;6065394;19;20410;-72
2021/11/09 10:43:28;;;;;;;0.82;0.50;;;18.20;72.50;;;22.05;39.06;95394.22;6062470;19;20018;-73
2021/11/09 10:45:34;;;;;;;0.50;0.50;;;18.20;72.60;;;22.06;39.32;95392.31;6075664;19;20055;-70
2021/11/09 10:47:36;;;;;;;1.02;0.90;;;18.20;72.60;;;22.05;39.34;95388.78;6115098;19;20049;-66
2021/11/09 10:50:00;;;;;;;1.45;0.63;;;18.20;72.50;;;22.04;39.10;95389.91;6116405;19;20015;-68
2021/11/09 10:52:02;;;;;;;0.63;0.60;;;18.20;72.50;;;22.05;39.48;95393.44;6115946;19;20677;-66
2021/11/09 10:54:06;;;;;;;0.43;0.43;;;18.20;72.50;;;22.05;39.53;95383.38;6110406;19;20260;-66
2021/11/09 10:58:31;;;;;;;1.52;0.80;;;18.20;72.60;;;22.06;39.36;95387.69;6113316;19;20020;-66